Time;durP1;ratioP1;P1;durP2;ratioP2;P2;SDS_P1;SDS_P2;PMS_P1;PMS_P2;Temp;Humidity;BMP_temperature;BMP_pressure;BME280_temperature;BME280_humidity;BME280_pressure;Samples;Min_cycle;Max_cycle;Signal;HPM_P1;HPM_P2
2022/01/28 00:02:12;;;;;;;4.90;1.08;;;;;;;;;;10422646;28;20219;-76
2022/01/28 00:07:14;;;;;;;5.47;1.00;;;;;;;;;;10404256;28;20285;-76
2022/01/28 00:12:15;;;;;;;5.15;1.13;;;;;;;;;;10410992;28;20296;-76
2022/01/28 00:18:04;;;;;;;5.13;1.05;;;;;;;;;;10400188;28;20190;-76
2022/01/28 00:38:47;;;;;;;5.90;1.15;;;;;;;;;;10409154;28;20190;-76
2022/01/28 00:43:48;;;;;;;3.70;0.77;;;;;;;;;;10398447;28;20311;-76
2022/01/28 00:48:49;;;;;;;4.30;0.82;;;;;;;;;;10402450;28;20202;-77
2022/01/28 00:53:52;;;;;;;6.35;1.08;;;;;;;;;;10418137;28;20341;-76
2022/01/28 00:58:54;;;;;;;7.00;1.08;;;;;;;;;;10402028;28;20191;-77
2022/01/28 01:03:55;;;;;;;10.80;1.60;;;;;;;;;;10405275;28;20238;-77
2022/01/28 01:08:56;;;;;;;4.43;0.95;;;;;;;;;;10400575;28;20194;-78
2022/01/28 01:13:58;;;;;;;5.78;0.93;;;;;;;;;;10410383;28;20264;-76
2022/01/28 01:19:16;;;;;;;11.25;1.77;;;;;;;;;;10397495;28;20187;-77
2022/01/28 01:24:22;;;;;;;7.28;1.10;;;;;;;;;;10409668;28;20205;-77
2022/01/28 01:29:23;;;;;;;10.13;1.45;;;;;;;;;;10423949;28;20356;-77
2022/01/28 01:34:24;;;;;;;8.02;0.90;;;;;;;;;;10414282;28;20811;-77
2022/01/28 01:39:30;;;;;;;7.72;1.80;;;;;;;;;;10422512;28;20190;-76
2022/01/28 01:44:56;;;;;;;17.48;1.83;;;;;;;;;;10422031;28;20325;-76
2022/01/28 01:55:12;;;;;;;13.70;1.00;;;;;;;;;;10424976;28;20244;-77
2022/01/28 02:00:14;;;;;;;5.82;1.38;;;;;;;;;;10405786;28;20194;-76
2022/01/28 02:05:21;;;;;;;16.55;1.17;;;;;;;;;;10419069;28;20210;-77
2022/01/28 02:10:23;;;;;;;8.00;1.85;;;;;;;;;;10418650;28;20211;-76
2022/01/28 02:15:24;;;;;;;13.82;1.48;;;;;;;;;;10387467;28;20193;-76
2022/01/28 02:20:31;;;;;;;7.32;1.10;;;;;;;;;;10409648;28;20308;-76
2022/01/28 02:25:33;;;;;;;10.73;2.55;;;;;;;;;;10403203;28;20251;-76
2022/01/28 02:30:34;;;;;;;12.82;1.92;;;;;;;;;;10417394;28;20233;-76
2022/01/28 02:35:36;;;;;;;9.48;1.70;;;;;;;;;;10424315;28;20194;-76
2022/01/28 02:40:39;;;;;;;11.48;1.63;;;;;;;;;;10428438;28;20225;-78
2022/01/28 02:45:41;;;;;;;10.05;1.60;;;;;;;;;;10405121;28;20274;-77
2022/01/28 02:51:10;;;;;;;10.23;1.67;;;;;;;;;;10428658;28;20414;-76
2022/01/28 02:56:12;;;;;;;17.15;2.65;;;;;;;;;;10414857;28;20217;-77
2022/01/28 03:01:15;;;;;;;9.23;1.65;;;;;;;;;;10417894;28;20264;-77
2022/01/28 03:06:17;;;;;;;16.67;1.85;;;;;;;;;;10412623;28;20229;-77
2022/01/28 03:16:28;;;;;;;6.32;1.05;;;;;;;;;;10429463;28;20235;-77
2022/01/28 03:26:30;;;;;;;13.57;1.75;;;;;;;;;;10432557;28;20209;-77
2022/01/28 03:31:32;;;;;;;8.98;1.70;;;;;;;;;;10397438;28;20230;-77
2022/01/28 03:36:33;;;;;;;10.10;2.10;;;;;;;;;;10412506;28;20221;-77
2022/01/28 03:41:34;;;;;;;15.52;1.90;;;;;;;;;;10426551;28;20273;-77
2022/01/28 03:46:35;;;;;;;13.40;1.67;;;;;;;;;;10398926;28;20938;-76
2022/01/28 03:51:36;;;;;;;16.27;2.22;;;;;;;;;;10435973;28;20226;-78
2022/01/28 03:56:37;;;;;;;17.25;1.70;;;;;;;;;;10424682;28;20194;-78
2022/01/28 04:01:40;;;;;;;11.63;1.40;;;;;;;;;;10434334;28;20356;-78
2022/01/28 04:12:01;;;;;;;9.30;2.22;;;;;;;;;;10423972;28;20225;-78
2022/01/28 04:22:07;;;;;;;11.57;1.35;;;;;;;;;;10444501;28;20272;-77
2022/01/28 04:27:08;;;;;;;10.75;1.98;;;;;;;;;;10415023;28;20201;-76
2022/01/28 04:32:09;;;;;;;11.90;1.67;;;;;;;;;;10420976;28;20309;-77
2022/01/28 04:37:19;;;;;;;9.82;1.45;;;;;;;;;;10426255;28;20261;-77
2022/01/28 04:42:38;;;;;;;11.35;2.47;;;;;;;;;;10409067;28;20211;-76
2022/01/28 04:58:18;;;;;;;6.15;1.20;;;;;;;;;;10433076;28;20189;-76
2022/01/28 05:03:40;;;;;;;10.63;2.08;;;;;;;;;;10461917;28;20213;-77
2022/01/28 05:09:22;;;;;;;6.82;1.00;;;;;;;;;;10441922;28;20190;-79
2022/01/28 05:25:41;;;;;;;10.75;1.30;;;;;;;;;;10458428;28;20193;-77
2022/01/28 05:30:24;;;;;;;12.00;1.75;;;;;;;;;;10459505;28;20233;-77
2022/01/28 05:35:27;;;;;;;14.35;1.45;;;;;;;;;;10465217;28;20182;-77
2022/01/28 05:40:28;;;;;;;12.18;1.13;;;;;;;;;;10468163;28;20245;-77
2022/01/28 05:45:29;;;;;;;7.63;1.23;;;;;;;;;;10464687;28;20934;-78
2022/01/28 05:50:30;;;;;;;11.85;1.10;;;;;;;;;;10449057;28;20213;-78
2022/01/28 05:55:31;;;;;;;7.40;1.73;;;;;;;;;;10448212;28;20197;-78
2022/01/28 06:00:32;;;;;;;8.77;1.40;;;;;;;;;;10465349;28;20325;-77
2022/01/28 06:05:34;;;;;;;5.85;1.05;;;;;;;;;;10446672;28;20229;-78
2022/01/28 06:10:35;;;;;;;12.27;1.73;;;;;;;;;;10458951;28;20216;-77
2022/01/28 06:15:39;;;;;;;12.75;2.30;;;;;;;;;;10459671;28;20185;-77
2022/01/28 06:20:40;;;;;;;15.45;1.75;;;;;;;;;;10447977;28;20232;-77
2022/01/28 06:25:43;;;;;;;11.50;1.83;;;;;;;;;;10452848;28;21254;-77
2022/01/28 06:30:44;;;;;;;6.50;1.42;;;;;;;;;;10446683;28;20217;-76
2022/01/28 06:35:46;;;;;;;8.13;1.40;;;;;;;;;;10464935;28;20204;-77
2022/01/28 06:40:49;;;;;;;11.23;1.48;;;;;;;;;;10468596;28;20186;-77
2022/01/28 06:45:50;;;;;;;16.23;1.40;;;;;;;;;;10427982;28;20253;-77
2022/01/28 06:50:51;;;;;;;11.52;1.60;;;;;;;;;;10437987;28;20321;-78
2022/01/28 06:55:52;;;;;;;7.43;1.50;;;;;;;;;;10438611;28;20187;-75
2022/01/28 07:00:53;;;;;;;10.13;1.60;;;;;;;;;;10422385;28;20272;-78
2022/01/28 07:05:54;;;;;;;5.65;1.05;;;;;;;;;;10417183;28;20190;-78
2022/01/28 07:10:55;;;;;;;15.23;1.98;;;;;;;;;;10439986;28;20214;-77
2022/01/28 07:15:57;;;;;;;19.75;2.70;;;;;;;;;;10424558;28;20191;-79
2022/01/28 07:20:58;;;;;;;9.57;1.45;;;;;;;;;;10433636;28;20198;-80
2022/01/28 07:25:59;;;;;;;12.68;1.75;;;;;;;;;;10440798;28;20201;-80
2022/01/28 07:31:01;;;;;;;16.17;2.53;;;;;;;;;;10446938;28;20213;-81
2022/01/28 07:36:02;;;;;;;8.70;1.80;;;;;;;;;;10453111;28;20194;-80
2022/01/28 07:41:04;;;;;;;11.90;1.83;;;;;;;;;;10450754;28;20269;-81
2022/01/28 07:46:06;;;;;;;19.40;2.30;;;;;;;;;;10471528;28;20222;-81
2022/01/28 07:51:07;;;;;;;13.25;1.60;;;;;;;;;;10481288;28;20212;-80
2022/01/28 07:56:08;;;;;;;13.27;1.52;;;;;;;;;;10479316;28;20196;-80
2022/01/28 08:01:10;;;;;;;8.25;1.25;;;;;;;;;;10463377;28;20213;-79
2022/01/28 08:06:11;;;;;;;15.38;1.90;;;;;;;;;;10462465;28;20221;-79
2022/01/28 08:11:13;;;;;;;20.95;1.98;;;;;;;;;;10474639;28;20217;-80
2022/01/28 08:16:14;;;;;;;18.35;2.25;;;;;;;;;;10490428;28;20240;-79
2022/01/28 08:21:16;;;;;;;13.60;1.35;;;;;;;;;;10473844;28;20614;-78
2022/01/28 08:26:18;;;;;;;17.23;1.77;;;;;;;;;;10478871;28;20202;-80
2022/01/28 08:31:20;;;;;;;9.35;1.73;;;;;;;;;;10481328;28;20233;-80
2022/01/28 08:36:21;;;;;;;9.63;1.35;;;;;;;;;;10484931;28;20264;-80
2022/01/28 08:41:22;;;;;;;12.18;1.77;;;;;;;;;;10482019;28;20200;-76
2022/01/28 08:46:23;;;;;;;8.50;1.60;;;;;;;;;;10490305;28;20255;-80
2022/01/28 08:51:24;;;;;;;10.50;1.85;;;;;;;;;;10485352;28;20275;-79
2022/01/28 08:56:25;;;;;;;13.48;1.50;;;;;;;;;;10467894;28;20196;-78
2022/01/28 09:01:28;;;;;;;13.73;1.63;;;;;;;;;;10475825;28;20209;-79
2022/01/28 09:06:29;;;;;;;8.40;1.48;;;;;;;;;;10469457;28;20212;-79
2022/01/28 09:11:34;;;;;;;13.63;2.15;;;;;;;;;;10474400;28;20213;-77
2022/01/28 09:16:35;;;;;;;10.98;1.80;;;;;;;;;;10471772;28;20225;-77
2022/01/28 09:21:36;;;;;;;11.68;1.90;;;;;;;;;;10471707;28;20194;-78
2022/01/28 09:26:37;;;;;;;10.75;1.75;;;;;;;;;;10475336;28;20248;-77
2022/01/28 09:31:39;;;;;;;15.57;1.90;;;;;;;;;;10477181;28;20247;-78
2022/01/28 09:36:40;;;;;;;10.93;1.98;;;;;;;;;;10458621;28;20204;-77
2022/01/28 09:41:43;;;;;;;8.18;1.80;;;;;;;;;;10472331;28;20364;-78
2022/01/28 09:46:44;;;;;;;13.18;2.33;;;;;;;;;;10451970;28;20183;-76
2022/01/28 09:51:45;;;;;;;10.55;1.58;;;;;;;;;;10484748;28;20237;-78
2022/01/28 09:56:46;;;;;;;10.77;2.95;;;;;;;;;;10488907;28;20185;-77
2022/01/28 10:01:50;;;;;;;15.70;2.17;;;;;;;;;;10465864;28;20213;-77
2022/01/28 10:06:54;;;;;;;20.45;2.47;;;;;;;;;;10468250;28;20193;-77
2022/01/28 10:12:12;;;;;;;12.60;2.22;;;;;;;;;;10474326;28;20239;-78
2022/01/28 10:17:13;;;;;;;16.98;2.08;;;;;;;;;;10491824;28;20194;-77
2022/01/28 10:22:18;;;;;;;11.13;2.08;;;;;;;;;;10488237;28;20189;-78
2022/01/28 10:27:20;;;;;;;24.63;1.98;;;;;;;;;;10475472;28;20235;-77
2022/01/28 10:32:27;;;;;;;17.08;2.90;;;;;;;;;;10500435;28;20228;-77
2022/01/28 10:37:34;;;;;;;16.88;1.98;;;;;;;;;;10503860;28;20201;-77
2022/01/28 10:42:51;;;;;;;11.63;2.63;;;;;;;;;;10461544;28;20242;-78
2022/01/28 10:47:53;;;;;;;9.88;1.50;;;;;;;;;;10460068;28;20193;-76
2022/01/28 10:53:07;;;;;;;17.38;2.08;;;;;;;;;;10424160;28;20213;-77
2022/01/28 10:58:09;;;;;;;14.85;2.33;;;;;;;;;;10424960;28;20328;-76
2022/01/28 11:03:12;;;;;;;11.48;2.35;;;;;;;;;;10445283;28;20214;-78
2022/01/28 11:08:14;;;;;;;11.43;1.58;;;;;;;;;;10432241;28;20207;-76
2022/01/28 11:13:15;;;;;;;19.40;2.30;;;;;;;;;;10429795;28;20898;-77
2022/01/28 11:18:17;;;;;;;13.18;2.75;;;;;;;;;;10445548;28;20276;-75
2022/01/28 11:23:18;;;;;;;10.00;1.67;;;;;;;;;;10424882;28;20257;-76
2022/01/28 11:28:19;;;;;;;13.18;2.22;;;;;;;;;;10429698;28;20199;-76
2022/01/28 11:33:20;;;;;;;10.63;2.50;;;;;;;;;;10417637;28;20257;-75
2022/01/28 11:38:34;;;;;;;24.58;2.45;;;;;;;;;;10437447;28;20990;-77
2022/01/28 11:43:43;;;;;;;10.77;1.95;;;;;;;;;;10403230;28;20213;-78
2022/01/28 11:48:54;;;;;;;10.63;2.45;;;;;;;;;;10425210;28;20198;-77
2022/01/28 11:53:56;;;;;;;16.15;2.42;;;;;;;;;;10422107;28;20212;-76
2022/01/28 11:58:58;;;;;;;11.25;1.77;;;;;;;;;;10442422;28;20202;-77
2022/01/28 12:04:18;;;;;;;13.13;2.13;;;;;;;;;;10433622;28;20324;-76
2022/01/28 12:09:19;;;;;;;11.35;2.10;;;;;;;;;;10431315;28;20190;-77
2022/01/28 12:14:39;;;;;;;20.10;2.40;;;;;;;;;;10432735;28;20732;-76
2022/01/28 12:19:40;;;;;;;11.02;2.00;;;;;;;;;;10400866;28;20187;-77
2022/01/28 12:24:42;;;;;;;10.52;2.25;;;;;;;;;;10398258;28;20226;-76
2022/01/28 12:29:47;;;;;;;12.55;2.22;;;;;;;;;;10429223;28;20190;-78
2022/01/28 12:34:48;;;;;;;6.13;1.63;;;;;;;;;;10435608;28;20230;-77
2022/01/28 12:39:59;;;;;;;15.40;1.70;;;;;;;;;;10412870;28;20280;-78
2022/01/28 12:45:00;;;;;;;13.93;1.98;;;;;;;;;;10452326;28;20214;-78
2022/01/28 12:50:03;;;;;;;7.57;1.90;;;;;;;;;;10476686;28;20304;-77
2022/01/28 12:55:05;;;;;;;4.93;1.55;;;;;;;;;;10475456;28;20197;-78
2022/01/28 13:00:06;;;;;;;11.18;1.70;;;;;;;;;;10472823;28;20192;-76
2022/01/28 13:10:09;;;;;;;12.27;2.10;;;;;;;;;;10472317;28;20197;-76
2022/01/28 13:15:12;;;;;;;15.68;2.47;;;;;;;;;;10476753;28;20193;-77
2022/01/28 13:20:13;;;;;;;12.13;1.63;;;;;;;;;;10444205;28;20204;-77
2022/01/28 13:25:21;;;;;;;14.73;3.00;;;;;;;;;;10478824;28;20246;-76
2022/01/28 13:30:23;;;;;;;7.90;1.77;;;;;;;;;;10467282;28;20308;-76
2022/01/28 13:35:25;;;;;;;11.75;1.67;;;;;;;;;;10469230;28;20197;-76
2022/01/28 13:40:29;;;;;;;11.18;2.03;;;;;;;;;;10481424;28;20751;-77
2022/01/28 13:45:36;;;;;;;18.88;1.52;;;;;;;;;;10461674;28;20295;-77
2022/01/28 13:50:39;;;;;;;10.75;1.77;;;;;;;;;;10470872;28;20238;-76
2022/01/28 13:55:40;;;;;;;10.80;2.90;;;;;;;;;;10456556;28;20201;-79
2022/01/28 14:00:45;;;;;;;11.90;2.38;;;;;;;;;;10462037;28;20306;-78
2022/01/28 14:05:51;;;;;;;10.88;1.98;;;;;;;;;;10463032;28;20190;-80
2022/01/28 14:10:52;;;;;;;9.38;1.75;;;;;;;;;;10464043;28;20205;-79
2022/01/28 14:16:11;;;;;;;14.15;2.50;;;;;;;;;;10476946;28;20189;-77
2022/01/28 14:21:12;;;;;;;8.15;1.75;;;;;;;;;;10496498;28;21283;-77
2022/01/28 14:26:14;;;;;;;11.10;2.10;;;;;;;;;;10527982;28;20238;-76
2022/01/28 14:31:15;;;;;;;9.30;1.52;;;;;;;;;;10515341;28;20214;-77
2022/01/28 14:36:16;;;;;;;10.40;1.73;;;;;;;;;;10521168;28;20193;-77
2022/01/28 14:41:18;;;;;;;15.52;2.97;;;;;;;;;;10489200;28;20190;-77
2022/01/28 14:46:19;;;;;;;14.70;2.80;;;;;;;;;;10448852;28;20211;-78
2022/01/28 14:51:20;;;;;;;12.68;2.80;;;;;;;;;;10436114;28;20218;-79
2022/01/28 14:56:21;;;;;;;14.68;2.63;;;;;;;;;;10440496;28;20186;-76
2022/01/28 15:01:22;;;;;;;10.85;2.90;;;;;;;;;;10438233;28;20199;-76
2022/01/28 15:06:23;;;;;;;12.85;1.95;;;;;;;;;;10440448;28;20265;-78
2022/01/28 15:11:34;;;;;;;17.42;3.17;;;;;;;;;;10448030;28;20739;-78
2022/01/28 15:16:35;;;;;;;12.32;2.03;;;;;;;;;;10450688;28;20277;-79
2022/01/28 15:21:37;;;;;;;10.98;2.33;;;;;;;;;;10436238;28;20202;-79
2022/01/28 15:26:38;;;;;;;12.35;1.77;;;;;;;;;;10415820;28;20214;-78
2022/01/28 15:37:00;;;;;;;14.23;2.00;;;;;;;;;;10460580;28;20195;-78
2022/01/28 15:42:02;;;;;;;16.45;2.17;;;;;;;;;;10452858;28;20332;-78
2022/01/28 15:47:06;;;;;;;16.40;1.85;;;;;;;;;;10460821;28;20194;-79
2022/01/28 15:52:07;;;;;;;10.18;1.45;;;;;;;;;;10453505;28;20226;-79
2022/01/28 15:57:10;;;;;;;10.15;1.67;;;;;;;;;;10432875;28;20280;-77
2022/01/28 16:02:11;;;;;;;8.77;1.38;;;;;;;;;;10464303;28;20298;-78
2022/01/28 16:07:14;;;;;;;17.90;2.58;;;;;;;;;;10492423;28;20186;-78
2022/01/28 16:12:33;;;;;;;9.15;1.58;;;;;;;;;;10493429;28;20241;-78
2022/01/28 16:17:37;;;;;;;15.93;1.88;;;;;;;;;;10474605;28;20187;-77
2022/01/28 16:22:38;;;;;;;11.80;1.58;;;;;;;;;;10486201;28;20193;-77
2022/01/28 16:27:39;;;;;;;10.32;2.15;;;;;;;;;;10453206;28;20244;-76
2022/01/28 16:32:41;;;;;;;17.42;2.15;;;;;;;;;;10444188;28;20226;-75
2022/01/28 16:37:42;;;;;;;8.15;1.98;;;;;;;;;;10442726;28;20197;-75
2022/01/28 16:42:52;;;;;;;6.35;1.63;;;;;;;;;;10468405;28;20258;-76
2022/01/28 16:47:53;;;;;;;15.05;1.95;;;;;;;;;;10467891;28;20188;-76
2022/01/28 16:52:55;;;;;;;12.18;2.10;;;;;;;;;;10461953;28;20218;-76
2022/01/28 16:57:56;;;;;;;20.38;2.95;;;;;;;;;;10450698;28;20255;-77
2022/01/28 17:02:57;;;;;;;17.65;1.98;;;;;;;;;;10479227;28;20247;-76
2022/01/28 17:07:58;;;;;;;7.45;1.45;;;;;;;;;;10473410;28;20216;-76
2022/01/28 17:13:00;;;;;;;12.52;2.00;;;;;;;;;;10452856;28;21468;-75
2022/01/28 17:18:02;;;;;;;9.43;2.90;;;;;;;;;;10459669;28;20195;-76
2022/01/28 17:23:03;;;;;;;12.98;1.85;;;;;;;;;;10466864;28;20204;-78
2022/01/28 17:28:04;;;;;;;11.45;2.17;;;;;;;;;;10469378;28;20189;-76
2022/01/28 17:33:06;;;;;;;11.32;2.10;;;;;;;;;;10457702;28;20222;-75
2022/01/28 17:38:07;;;;;;;12.90;2.63;;;;;;;;;;10458327;28;20190;-76
2022/01/28 17:43:08;;;;;;;11.23;2.88;;;;;;;;;;10439011;28;20218;-76
2022/01/28 17:48:13;;;;;;;9.77;1.80;;;;;;;;;;10462378;28;20337;-76
2022/01/28 17:53:14;;;;;;;14.65;2.92;;;;;;;;;;10457252;28;20673;-78
2022/01/28 17:58:16;;;;;;;12.82;2.75;;;;;;;;;;10454110;28;20193;-75
2022/01/28 18:03:17;;;;;;;17.98;2.42;;;;;;;;;;10443302;28;20209;-75
2022/01/28 18:08:18;;;;;;;12.95;3.05;;;;;;;;;;10458496;28;20198;-76
2022/01/28 18:13:19;;;;;;;17.67;2.95;;;;;;;;;;10470341;28;20260;-77
2022/01/28 18:18:20;;;;;;;22.85;3.47;;;;;;;;;;10451211;28;20252;-76
2022/01/28 18:23:21;;;;;;;15.88;3.13;;;;;;;;;;10453559;28;20298;-77
2022/01/28 18:28:23;;;;;;;12.98;2.42;;;;;;;;;;10458283;28;20204;-77
2022/01/28 18:33:24;;;;;;;18.48;3.38;;;;;;;;;;10472062;28;20219;-76
2022/01/28 18:38:26;;;;;;;16.13;2.55;;;;;;;;;;10485389;28;20200;-76
2022/01/28 18:43:34;;;;;;;16.58;3.05;;;;;;;;;;10474239;28;20248;-75
2022/01/28 18:48:36;;;;;;;16.08;2.80;;;;;;;;;;10466242;28;20319;-76
2022/01/28 18:53:37;;;;;;;13.07;2.30;;;;;;;;;;10482361;28;20202;-76
2022/01/28 18:58:39;;;;;;;17.13;2.35;;;;;;;;;;10463790;28;20281;-77
2022/01/28 19:03:40;;;;;;;12.88;3.08;;;;;;;;;;10453111;28;20218;-76
2022/01/28 19:08:41;;;;;;;9.18;2.40;;;;;;;;;;10476944;28;20193;-76
2022/01/28 19:13:43;;;;;;;12.18;3.05;;;;;;;;;;10479800;28;20216;-77
2022/01/28 19:18:44;;;;;;;16.00;2.50;;;;;;;;;;10459887;28;20194;-76
2022/01/28 19:23:45;;;;;;;20.08;2.97;;;;;;;;;;10456671;28;20309;-76
2022/01/28 19:28:46;;;;;;;15.82;2.63;;;;;;;;;;10473337;28;20188;-76
2022/01/28 19:33:48;;;;;;;12.73;2.55;;;;;;;;;;10472606;28;20316;-76
2022/01/28 19:38:49;;;;;;;15.98;2.55;;;;;;;;;;10461950;28;20197;-76
2022/01/28 19:43:50;;;;;;;14.23;3.78;;;;;;;;;;10451879;28;20210;-76
2022/01/28 19:48:54;;;;;;;14.70;3.08;;;;;;;;;;10455951;28;20208;-76
2022/01/28 19:53:55;;;;;;;20.75;3.30;;;;;;;;;;10443757;28;20225;-76
2022/01/28 19:58:56;;;;;;;11.35;1.92;;;;;;;;;;10458029;28;20194;-76
2022/01/28 20:03:57;;;;;;;15.27;3.20;;;;;;;;;;10472384;28;20206;-76
2022/01/28 20:08:59;;;;;;;10.63;2.20;;;;;;;;;;10473498;28;20263;-76
2022/01/28 20:14:00;;;;;;;13.93;2.47;;;;;;;;;;10459425;28;20300;-76
2022/01/28 20:19:01;;;;;;;18.50;3.97;;;;;;;;;;10454042;28;20190;-76
2022/01/28 20:24:02;;;;;;;14.80;2.75;;;;;;;;;;10460222;28;20198;-76
2022/01/28 20:29:05;;;;;;;22.10;2.55;;;;;;;;;;10470869;28;20204;-76
2022/01/28 20:34:07;;;;;;;19.92;3.75;;;;;;;;;;10474810;28;20327;-77
2022/01/28 20:39:08;;;;;;;15.60;3.63;;;;;;;;;;10464268;28;20193;-76
2022/01/28 20:44:09;;;;;;;16.30;4.30;;;;;;;;;;10421118;28;20242;-77
2022/01/28 20:49:14;;;;;;;12.98;2.45;;;;;;;;;;10432253;28;20182;-76
2022/01/28 20:54:15;;;;;;;12.18;3.08;;;;;;;;;;10422402;28;20289;-76
2022/01/28 20:59:16;;;;;;;10.85;3.22;;;;;;;;;;10435957;28;20229;-78
2022/01/28 21:04:17;;;;;;;15.68;2.83;;;;;;;;;;10417668;28;20218;-75
2022/01/28 21:09:18;;;;;;;25.50;3.17;;;;;;;;;;10423240;28;20317;-78
2022/01/28 21:14:21;;;;;;;14.20;2.53;;;;;;;;;;10433762;28;20206;-79
2022/01/28 21:19:22;;;;;;;16.20;2.75;;;;;;;;;;10438933;28;20198;-78
2022/01/28 21:24:23;;;;;;;11.75;3.10;;;;;;;;;;10426013;28;20248;-76
2022/01/28 21:29:24;;;;;;;15.98;3.20;;;;;;;;;;10432989;28;20310;-78
2022/01/28 21:34:25;;;;;;;19.70;4.85;;;;;;;;;;10417812;28;20219;-75
2022/01/28 21:39:26;;;;;;;14.07;3.70;;;;;;;;;;10423497;28;20195;-76
2022/01/28 21:44:27;;;;;;;14.25;3.20;;;;;;;;;;10431559;28;20297;-76
2022/01/28 21:49:28;;;;;;;23.63;4.57;;;;;;;;;;10447253;28;20200;-75
2022/01/28 21:54:29;;;;;;;17.77;4.20;;;;;;;;;;10451336;28;20210;-76
2022/01/28 21:59:30;;;;;;;18.17;4.35;;;;;;;;;;10455515;28;20211;-75
2022/01/28 22:04:31;;;;;;;19.35;3.08;;;;;;;;;;10453580;28;20297;-75
2022/01/28 22:09:32;;;;;;;16.05;3.90;;;;;;;;;;10470555;28;20189;-76
2022/01/28 22:14:34;;;;;;;17.35;3.30;;;;;;;;;;10473601;28;20206;-76
2022/01/28 22:19:35;;;;;;;16.42;3.53;;;;;;;;;;10463349;28;20194;-76
2022/01/28 22:24:36;;;;;;;18.20;3.60;;;;;;;;;;10480780;28;20198;-76
2022/01/28 22:29:37;;;;;;;14.25;2.60;;;;;;;;;;10463989;28;20197;-76
2022/01/28 22:34:38;;;;;;;15.63;3.42;;;;;;;;;;10467898;28;20225;-76
2022/01/28 22:39:39;;;;;;;12.32;3.03;;;;;;;;;;10451703;28;20197;-76
2022/01/28 22:44:40;;;;;;;20.48;3.50;;;;;;;;;;10469640;28;20241;-76
2022/01/28 22:49:41;;;;;;;18.00;3.20;;;;;;;;;;10470746;28;20201;-75
2022/01/28 22:54:42;;;;;;;18.42;3.15;;;;;;;;;;10467187;28;20233;-76
2022/01/28 22:59:44;;;;;;;20.20;2.88;;;;;;;;;;10470804;28;20213;-76
2022/01/28 23:04:45;;;;;;;17.77;2.42;;;;;;;;;;10446647;28;20214;-76
2022/01/28 23:09:47;;;;;;;9.93;2.15;;;;;;;;;;10470293;28;20284;-75
2022/01/28 23:14:48;;;;;;;7.97;2.20;;;;;;;;;;10478440;28;20236;-76
2022/01/28 23:19:49;;;;;;;20.33;3.47;;;;;;;;;;10453599;28;20277;-76
2022/01/28 23:24:51;;;;;;;13.48;2.65;;;;;;;;;;10475980;28;20247;-76
2022/01/28 23:29:52;;;;;;;13.35;2.25;;;;;;;;;;10473993;28;20201;-76
2022/01/28 23:34:53;;;;;;;11.73;2.38;;;;;;;;;;10460246;28;20222;-76
2022/01/28 23:39:54;;;;;;;17.55;2.97;;;;;;;;;;10439819;28;20243;-76
2022/01/28 23:44:55;;;;;;;10.70;2.35;;;;;;;;;;10472219;28;20225;-76
2022/01/28 23:49:56;;;;;;;17.58;2.72;;;;;;;;;;10474738;28;20197;-76
2022/01/28 23:54:58;;;;;;;16.70;2.72;;;;;;;;;;10461701;28;20237;-76
2022/01/28 23:59:59;;;;;;;17.95;3.28;;;;;;;;;;10459337;28;20193;-76
